Time;durP1;ratioP1;P1;durP2;ratioP2;P2;SDS_P1;SDS_P2;PMS_P1;PMS_P2;Temp;Humidity;BMP_temperature;BMP_pressure;BME280_temperature;BME280_humidity;BME280_pressure;Samples;Min_cycle;Max_cycle;Signal;HPM_P1;HPM_P2
2021/08/09 00:01:07;;;;;;;0.93;0.87;;;15.60;99.90;;;;;;6248900;28;20579;-70
2021/08/09 00:04:10;;;;;;;1.10;0.83;;;15.60;99.90;;;;;;6247757;28;20212;-71
2021/08/09 00:07:14;;;;;;;0.80;0.80;;;15.70;99.90;;;;;;6249044;28;20180;-70
2021/08/09 00:10:20;;;;;;;1.30;0.93;;;15.70;99.90;;;;;;6247672;28;20196;-70
2021/08/09 00:13:22;;;;;;;0.60;0.60;;;15.70;99.90;;;;;;6248589;28;20199;-70
2021/08/09 00:16:24;;;;;;;0.47;0.47;;;15.70;99.90;;;;;;6248250;28;20637;-70
2021/08/09 00:19:27;;;;;;;1.50;1.00;;;15.70;99.90;;;;;;6248674;28;20215;-70
2021/08/09 00:22:29;;;;;;;1.37;0.70;;;15.70;99.90;;;;;;6248598;28;20192;-70
2021/08/09 00:25:31;;;;;;;3.27;0.77;;;15.70;99.90;;;;;;6248439;28;20188;-70
2021/08/09 00:28:34;;;;;;;0.80;0.70;;;15.70;99.90;;;;;;6263675;28;20593;-70
2021/08/09 00:31:36;;;;;;;0.60;0.60;;;15.60;99.90;;;;;;6248503;28;20192;-70
2021/08/09 00:34:39;;;;;;;0.97;0.70;;;15.60;99.90;;;;;;6248072;28;20295;-70
2021/08/09 00:37:42;;;;;;;1.00;0.80;;;15.60;99.90;;;;;;6246913;28;20208;-71
2021/08/09 00:40:46;;;;;;;1.10;0.77;;;15.60;99.90;;;;;;6246744;28;20212;-70
2021/08/09 00:43:48;;;;;;;1.33;0.60;;;15.60;99.90;;;;;;6246577;28;20204;-71
2021/08/09 00:46:52;;;;;;;1.40;0.80;;;15.70;99.90;;;;;;6247936;28;20579;-70
2021/08/09 00:49:55;;;;;;;0.70;0.60;;;15.70;99.90;;;;;;6245835;28;20291;-71
2021/08/09 00:52:59;;;;;;;1.00;0.70;;;15.70;99.90;;;;;;6246511;28;20226;-70
2021/08/09 00:56:04;;;;;;;0.77;0.67;;;15.80;99.90;;;;;;6247747;28;20192;-71
2021/08/09 00:59:09;;;;;;;1.33;0.63;;;15.80;99.90;;;;;;6246175;28;20872;-70
2021/08/09 01:02:12;;;;;;;1.00;0.60;;;15.80;99.90;;;;;;6246234;28;20538;-71
2021/08/09 01:05:17;;;;;;;1.23;0.70;;;15.80;99.90;;;;;;6262789;28;20200;-71
2021/08/09 01:08:35;;;;;;;1.30;0.73;;;15.80;99.90;;;;;;6262895;28;20729;-71
2021/08/09 01:12:06;;;;;;;0.97;0.70;;;15.80;99.90;;;;;;6247323;28;20196;-71
2021/08/09 01:15:17;;;;;;;1.27;0.70;;;15.70;99.90;;;;;;6246537;28;20295;-71
2021/08/09 01:18:25;;;;;;;0.77;0.77;;;15.70;99.90;;;;;;6253518;28;20678;-70
2021/08/09 01:21:34;;;;;;;1.47;0.80;;;15.70;99.90;;;;;;6245676;28;20299;-70
2021/08/09 01:24:47;;;;;;;1.60;0.60;;;15.70;99.90;;;;;;6245666;28;20295;-70
2021/08/09 01:27:53;;;;;;;2.10;0.60;;;15.70;99.90;;;;;;6245907;28;20231;-71
2021/08/09 01:30:57;;;;;;;2.60;0.60;;;15.60;99.90;;;;;;6245566;28;20207;-70
2021/08/09 01:34:02;;;;;;;0.73;0.70;;;15.50;99.90;;;;;;6245449;28;20652;-72
2021/08/09 01:37:06;;;;;;;1.00;0.80;;;15.50;99.90;;;;;;6245608;28;20216;-70
2021/08/09 01:40:12;;;;;;;0.80;0.80;;;15.50;99.90;;;;;;6247423;28;20250;-71
2021/08/09 01:43:16;;;;;;;1.80;0.70;;;15.60;99.90;;;;;;6246542;28;20192;-71
2021/08/09 01:46:20;;;;;;;0.80;0.70;;;15.60;99.90;;;;;;6245210;28;20196;-71
2021/08/09 01:49:23;;;;;;;2.07;1.00;;;15.70;99.90;;;;;;6245536;28;20211;-71
2021/08/09 01:52:26;;;;;;;1.43;1.00;;;15.80;99.90;;;;;;6245170;28;20262;-71
2021/08/09 01:55:30;;;;;;;1.00;0.73;;;15.80;99.90;;;;;;6244969;28;20294;-71
2021/08/09 01:58:33;;;;;;;3.47;0.80;;;15.80;99.90;;;;;;6261620;28;20191;-71
2021/08/09 02:01:36;;;;;;;1.23;0.90;;;15.90;99.90;;;;;;6261389;28;20219;-71
2021/08/09 02:04:39;;;;;;;1.77;0.70;;;15.80;99.90;;;;;;6244814;28;20790;-71
2021/08/09 02:07:47;;;;;;;2.20;0.60;;;15.80;99.90;;;;;;6261472;28;20274;-71
2021/08/09 02:11:00;;;;;;;1.50;0.70;;;15.80;99.90;;;;;;6244595;28;20228;-72
2021/08/09 02:14:04;;;;;;;2.00;0.83;;;15.80;99.90;;;;;;6244780;28;20201;-71
2021/08/09 02:17:13;;;;;;;1.90;0.70;;;15.80;99.90;;;;;;6244434;28;20293;-70
2021/08/09 02:20:33;;;;;;;2.20;1.00;;;15.70;99.90;;;;;;6228328;28;20211;-71
2021/08/09 02:24:12;;;;;;;0.80;0.77;;;15.70;99.90;;;;;;6261030;28;20250;-70
2021/08/09 02:27:19;;;;;;;4.50;0.90;;;15.60;99.90;;;;;;6226218;28;20729;-71
2021/08/09 02:30:26;;;;;;;0.87;0.80;;;15.60;99.90;;;;;;6251342;28;20249;-71
2021/08/09 02:33:31;;;;;;;2.43;0.83;;;15.50;99.90;;;;;;6234479;28;20291;-71
2021/08/09 02:36:37;;;;;;;0.90;0.90;;;15.50;99.90;;;;;;6239894;28;20208;-70
2021/08/09 02:39:40;;;;;;;1.13;0.63;;;15.50;99.90;;;;;;6242479;28;20679;-71
2021/08/09 02:42:43;;;;;;;1.40;0.90;;;15.40;99.90;;;;;;6242558;28;20196;-70
2021/08/09 02:45:49;;;;;;;3.00;0.87;;;15.30;99.90;;;;;;6242648;28;20254;-71
2021/08/09 02:48:52;;;;;;;0.80;0.80;;;15.30;99.90;;;;;;6225961;28;20208;-70
2021/08/09 02:51:55;;;;;;;2.90;0.70;;;15.30;99.90;;;;;;6242483;28;20204;-71
2021/08/09 02:55:00;;;;;;;1.40;0.90;;;15.30;99.90;;;;;;6242219;28;20200;-71
2021/08/09 02:58:07;;;;;;;1.27;0.70;;;15.30;99.90;;;;;;6242588;28;20203;-71
2021/08/09 03:01:15;;;;;;;1.50;0.63;;;15.30;99.90;;;;;;6242663;28;20208;-70
2021/08/09 03:04:22;;;;;;;1.47;0.73;;;15.30;99.90;;;;;;6245128;28;20271;-71
2021/08/09 03:07:25;;;;;;;1.13;0.77;;;15.30;99.90;;;;;;6244039;28;20552;-71
2021/08/09 03:10:29;;;;;;;2.00;0.87;;;15.30;99.90;;;;;;6245164;28;20219;-70
2021/08/09 03:13:31;;;;;;;1.70;1.60;;;15.30;99.90;;;;;;6263638;28;20210;-70
2021/08/09 03:16:35;;;;;;;0.90;0.87;;;15.30;99.90;;;;;;6248472;28;20322;-71
2021/08/09 03:19:38;;;;;;;3.07;1.30;;;15.30;99.90;;;;;;6248666;28;20315;-70
2021/08/09 03:22:40;;;;;;;1.80;1.50;;;15.40;99.90;;;;;;6248287;28;20200;-71
2021/08/09 03:25:43;;;;;;;2.57;1.60;;;15.40;99.90;;;;;;6248694;28;20668;-71
2021/08/09 03:28:46;;;;;;;2.20;1.67;;;15.40;99.90;;;;;;6265253;28;20564;-71
2021/08/09 03:31:48;;;;;;;3.60;1.50;;;15.40;99.90;;;;;;6264954;28;20188;-71
2021/08/09 03:34:51;;;;;;;4.03;1.80;;;15.30;99.90;;;;;;6248215;28;20219;-71
2021/08/09 03:37:54;;;;;;;3.87;2.00;;;15.20;99.90;;;;;;6264824;28;20621;-71
2021/08/09 03:40:56;;;;;;;5.07;2.57;;;15.20;99.90;;;;;;6264925;28;20208;-71
2021/08/09 03:43:59;;;;;;;3.70;2.13;;;15.10;99.90;;;;;;6249360;28;20192;-72
2021/08/09 03:47:01;;;;;;;3.17;1.80;;;15.00;99.90;;;;;;6264681;28;20204;-71
2021/08/09 03:50:04;;;;;;;3.93;2.13;;;15.00;99.90;;;;;;6249344;28;20643;-70
2021/08/09 03:53:06;;;;;;;4.33;1.80;;;15.00;99.90;;;;;;6248068;28;20196;-71
2021/08/09 03:56:09;;;;;;;2.20;1.90;;;15.00;99.90;;;;;;6264439;28;20196;-70
2021/08/09 03:59:11;;;;;;;2.63;1.63;;;15.00;99.90;;;;;;6248920;28;20204;-71
2021/08/09 04:02:17;;;;;;;2.20;1.67;;;15.00;99.90;;;;;;6247332;28;20224;-71
2021/08/09 04:05:21;;;;;;;2.73;1.60;;;15.00;99.90;;;;;;6247330;28;20189;-72
2021/08/09 04:08:24;;;;;;;1.60;1.50;;;15.10;99.90;;;;;;6263944;28;20192;-70
2021/08/09 04:11:27;;;;;;;2.33;1.77;;;15.00;99.90;;;;;;6247260;28;20791;-70
2021/08/09 04:14:29;;;;;;;3.70;1.93;;;15.00;99.90;;;;;;6248223;28;20196;-70
2021/08/09 04:17:34;;;;;;;4.70;1.93;;;15.00;99.90;;;;;;6263511;28;20586;-71
2021/08/09 04:20:42;;;;;;;2.50;1.43;;;15.00;99.90;;;;;;6263462;28;20594;-71
2021/08/09 04:23:45;;;;;;;4.00;1.80;;;15.00;99.90;;;;;;6245850;28;20342;-70
2021/08/09 04:26:47;;;;;;;1.77;1.20;;;15.00;99.90;;;;;;6263408;28;20184;-70
2021/08/09 04:29:50;;;;;;;2.60;1.70;;;15.00;99.90;;;;;;6263401;28;20225;-70
2021/08/09 04:32:52;;;;;;;1.50;1.40;;;15.10;99.90;;;;;;6263910;28;20707;-71
2021/08/09 04:35:59;;;;;;;2.43;1.40;;;15.10;99.90;;;;;;6246753;28;20220;-71
2021/08/09 04:39:02;;;;;;;1.30;1.00;;;15.10;99.90;;;;;;6263205;28;20287;-70
2021/08/09 04:42:06;;;;;;;1.77;1.00;;;15.10;99.90;;;;;;6247694;28;20353;-71
2021/08/09 04:45:16;;;;;;;1.30;1.00;;;15.20;99.90;;;;;;6247601;28;20555;-70
2021/08/09 04:48:19;;;;;;;1.30;1.17;;;15.20;99.90;;;;;;6246489;28;20188;-70
2021/08/09 04:51:21;;;;;;;2.30;1.20;;;15.20;99.90;;;;;;6246145;28;20214;-70
2021/08/09 04:54:27;;;;;;;3.13;1.07;;;15.20;99.90;;;;;;6246076;28;20283;-71
2021/08/09 04:57:29;;;;;;;1.47;0.90;;;15.20;99.90;;;;;;6246240;28;20200;-70
2021/08/09 05:00:32;;;;;;;1.43;0.90;;;15.30;99.90;;;;;;6246370;28;20215;-71
2021/08/09 05:03:39;;;;;;;2.03;1.00;;;15.20;99.90;;;;;;6245942;28;20203;-71
2021/08/09 05:06:48;;;;;;;1.60;1.00;;;15.30;99.90;;;;;;6246445;28;20200;-71
2021/08/09 05:09:51;;;;;;;2.47;0.90;;;15.30;99.90;;;;;;6246238;28;20667;-70
2021/08/09 05:12:54;;;;;;;1.00;0.90;;;15.30;99.90;;;;;;6245801;28;20191;-71
2021/08/09 05:15:56;;;;;;;1.03;0.80;;;15.30;99.90;;;;;;6262077;28;20373;-70
2021/08/09 05:19:02;;;;;;;1.20;0.90;;;15.30;99.90;;;;;;6245472;28;20204;-70
2021/08/09 05:22:05;;;;;;;3.23;0.70;;;15.30;99.90;;;;;;6245632;28;20573;-71
2021/08/09 05:25:09;;;;;;;2.10;1.00;;;15.30;99.90;;;;;;6245290;28;20648;-70
2021/08/09 05:28:11;;;;;;;1.17;0.90;;;15.30;99.90;;;;;;6261902;28;20277;-71
2021/08/09 05:31:14;;;;;;;1.00;0.80;;;15.40;99.90;;;;;;6261999;28;20206;-72
2021/08/09 05:34:16;;;;;;;1.00;0.90;;;15.40;99.90;;;;;;6246175;28;20207;-71
2021/08/09 05:37:19;;;;;;;2.90;1.07;;;15.50;99.90;;;;;;6261451;28;20216;-71
2021/08/09 05:40:26;;;;;;;1.00;0.90;;;15.60;99.90;;;;;;6261607;28;20269;-70
2021/08/09 05:43:29;;;;;;;1.13;1.00;;;15.70;99.90;;;;;;6261551;28;20699;-71
2021/08/09 05:46:32;;;;;;;1.87;0.80;;;15.80;99.90;;;;;;6245096;28;20203;-72
2021/08/09 05:49:36;;;;;;;1.57;1.00;;;15.90;99.90;;;;;;6244879;28;20215;-71
2021/08/09 05:52:38;;;;;;;1.07;0.70;;;15.90;99.90;;;;;;6245004;28;20195;-70
2021/08/09 05:55:45;;;;;;;1.70;0.90;;;15.90;99.90;;;;;;6246096;28;20750;-70
2021/08/09 05:58:48;;;;;;;1.80;0.70;;;16.00;99.90;;;;;;6244799;28;20220;-71
2021/08/09 06:01:52;;;;;;;1.60;0.80;;;16.00;99.90;;;;;;6244566;28;20869;-71
2021/08/09 06:04:59;;;;;;;0.80;0.80;;;16.10;99.90;;;;;;6244500;28;20413;-71
2021/08/09 06:08:01;;;;;;;3.63;1.00;;;16.20;99.90;;;;;;6236435;28;20215;-70
2021/08/09 06:11:06;;;;;;;2.13;0.80;;;16.30;99.90;;;;;;6250296;28;20198;-70
2021/08/09 06:14:08;;;;;;;1.00;0.60;;;16.30;99.90;;;;;;6244475;28;20207;-71
2021/08/09 06:17:11;;;;;;;1.87;0.60;;;16.40;99.90;;;;;;6244059;28;20235;-70
2021/08/09 06:20:14;;;;;;;1.50;0.87;;;16.50;99.90;;;;;;6244698;28;20509;-72
2021/08/09 06:23:17;;;;;;;0.70;0.70;;;16.60;99.90;;;;;;6244541;28;20215;-70
2021/08/09 06:26:20;;;;;;;2.73;0.87;;;16.80;99.90;;;;;;6245385;28;20318;-71
2021/08/09 06:29:24;;;;;;;5.97;0.90;;;17.00;99.90;;;;;;6260575;28;20543;-71
2021/08/09 06:32:26;;;;;;;2.67;0.73;;;17.10;99.90;;;;;;6219637;28;20203;-70
2021/08/09 06:35:30;;;;;;;3.03;0.90;;;17.20;99.90;;;;;;6252322;28;20224;-70
2021/08/09 06:38:34;;;;;;;2.10;0.83;;;17.20;99.90;;;;;;6260884;28;20533;-71
2021/08/09 06:41:38;;;;;;;4.77;0.90;;;17.20;99.90;;;;;;6245147;28;20239;-71
2021/08/09 06:44:53;;;;;;;2.23;0.70;;;17.30;99.90;;;;;;6260443;28;20192;-71
2021/08/09 06:47:56;;;;;;;5.20;0.87;;;17.50;99.90;;;;;;6244329;28;20648;-71
2021/08/09 06:50:59;;;;;;;0.90;0.70;;;17.60;99.90;;;;;;6240118;28;20548;-70
2021/08/09 06:54:01;;;;;;;1.07;0.83;;;17.80;99.90;;;;;;6244802;28;20200;-71
2021/08/09 06:57:06;;;;;;;0.70;0.50;;;18.00;99.90;;;;;;6243471;28;20289;-71
2021/08/09 07:00:11;;;;;;;3.70;0.90;;;18.20;99.90;;;;;;6243386;28;20184;-70
2021/08/09 07:03:15;;;;;;;2.53;0.77;;;18.30;99.90;;;;;;6226887;28;20622;-71
2021/08/09 07:06:20;;;;;;;0.87;0.70;;;18.40;99.90;;;;;;6260020;28;20223;-72
2021/08/09 07:09:24;;;;;;;2.77;0.80;;;18.40;99.90;;;;;;6243055;28;20200;-71
2021/08/09 07:12:27;;;;;;;2.57;0.77;;;18.70;99.90;;;;;;6243061;28;20556;-70
2021/08/09 07:15:30;;;;;;;2.07;0.70;;;18.90;99.90;;;;;;6243296;28;20227;-71
2021/08/09 07:18:33;;;;;;;2.10;0.60;;;19.10;99.90;;;;;;6227349;28;20204;-71
2021/08/09 07:21:36;;;;;;;2.67;0.80;;;19.30;99.90;;;;;;6260179;28;20230;-70
2021/08/09 07:24:38;;;;;;;2.13;0.80;;;19.50;99.90;;;;;;6244623;28;20199;-70
2021/08/09 07:27:44;;;;;;;1.30;0.70;;;19.60;99.90;;;;;;6243091;28;20196;-70
2021/08/09 07:30:49;;;;;;;1.77;0.77;;;19.50;99.90;;;;;;6218803;28;20205;-70
2021/08/09 07:33:52;;;;;;;2.93;0.90;;;19.60;99.90;;;;;;6250333;28;20204;-70
2021/08/09 07:36:54;;;;;;;2.23;0.70;;;19.60;99.90;;;;;;6243487;28;20645;-70
2021/08/09 07:39:57;;;;;;;2.50;0.73;;;19.60;99.90;;;;;;6243324;28;20192;-71
2021/08/09 07:42:59;;;;;;;0.50;0.50;;;19.80;99.90;;;;;;6243280;28;20698;-70
2021/08/09 07:46:03;;;;;;;2.10;0.93;;;20.10;99.90;;;;;;6244245;28;20554;-70
2021/08/09 07:49:06;;;;;;;2.40;0.73;;;20.40;99.90;;;;;;6243468;28;20283;-70
2021/08/09 07:52:10;;;;;;;3.53;0.70;;;21.00;99.90;;;;;;6242667;28;20207;-70
2021/08/09 07:55:13;;;;;;;1.50;0.70;;;21.40;99.90;;;;;;6259874;28;20196;-71
2021/08/09 07:58:15;;;;;;;2.27;0.83;;;21.80;99.90;;;;;;6243781;28;20285;-72
2021/08/09 08:01:18;;;;;;;1.10;0.70;;;22.20;99.90;;;;;;6247390;28;20208;-70
2021/08/09 08:04:20;;;;;;;1.70;0.80;;;22.30;99.90;;;;;;6247322;28;20204;-69
2021/08/09 08:07:23;;;;;;;2.30;0.97;;;22.00;99.70;;;;;;6247294;28;20558;-70
2021/08/09 08:10:29;;;;;;;2.77;1.00;;;21.80;99.90;;;;;;6247768;28;20767;-71
2021/08/09 08:13:32;;;;;;;3.43;1.10;;;21.50;99.90;;;;;;6246835;28;20202;-70
2021/08/09 08:16:35;;;;;;;2.30;0.70;;;21.70;99.90;;;;;;6246897;28;20230;-71
2021/08/09 08:19:38;;;;;;;1.27;0.80;;;22.00;99.90;;;;;;6246850;28;20196;-69
2021/08/09 08:22:40;;;;;;;1.43;0.80;;;22.30;99.90;;;;;;6263268;28;20215;-70
2021/08/09 08:25:44;;;;;;;1.57;0.70;;;22.70;99.90;;;;;;6246089;28;20564;-70
2021/08/09 08:28:47;;;;;;;0.97;0.70;;;23.00;99.20;;;;;;6245757;28;20321;-69
2021/08/09 08:31:49;;;;;;;5.10;0.77;;;22.90;99.50;;;;;;6246541;28;20547;-70
2021/08/09 08:34:52;;;;;;;1.03;0.80;;;23.00;99.60;;;;;;6247811;28;20215;-70
2021/08/09 08:37:54;;;;;;;2.90;0.70;;;23.30;99.30;;;;;;6246506;28;20214;-70
2021/08/09 08:41:03;;;;;;;1.87;0.80;;;23.60;98.70;;;;;;6247881;28;20199;-71
2021/08/09 08:44:07;;;;;;;2.07;1.00;;;24.10;99.00;;;;;;6261518;28;20223;-70
2021/08/09 08:47:13;;;;;;;3.43;0.90;;;24.30;97.40;;;;;;6246312;28;20210;-70
2021/08/09 08:50:18;;;;;;;1.73;0.80;;;24.40;97.00;;;;;;6246148;28;20193;-70
2021/08/09 08:53:21;;;;;;;3.33;1.60;;;24.60;98.10;;;;;;6262928;28;20197;-72
2021/08/09 08:56:24;;;;;;;1.13;0.80;;;24.70;98.10;;;;;;6262212;28;20196;-71
2021/08/09 08:59:26;;;;;;;1.40;0.90;;;24.90;95.10;;;;;;6246079;28;20200;-71
2021/08/09 09:02:39;;;;;;;1.97;1.20;;;24.80;91.30;;;;;;6245986;28;20679;-71
2021/08/09 09:05:41;;;;;;;1.10;0.80;;;24.80;94.90;;;;;;6245941;28;20187;-71
2021/08/09 09:08:47;;;;;;;2.17;0.83;;;24.80;95.80;;;;;;6247335;28;20195;-71
2021/08/09 09:11:50;;;;;;;1.37;0.70;;;24.80;94.20;;;;;;6246501;28;20207;-70
2021/08/09 09:15:04;;;;;;;1.87;0.77;;;24.90;96.00;;;;;;6245824;28;20207;-71
2021/08/09 09:18:06;;;;;;;0.80;0.80;;;25.20;94.40;;;;;;6247075;28;20626;-70
2021/08/09 09:21:24;;;;;;;3.08;1.15;;;25.40;93.10;;;;;;6246111;28;20211;-69
2021/08/09 09:24:28;;;;;;;0.82;0.68;;;25.70;93.80;;;;;;6245795;28;20200;-70
2021/08/09 09:27:33;;;;;;;4.28;1.35;;;25.70;86.00;;;;;;6245390;28;20656;-70
2021/08/09 09:30:36;;;;;;;0.60;0.60;;;26.00;88.20;;;;;;6245326;28;20200;-71
2021/08/09 09:33:46;;;;;;;1.00;0.90;;;26.20;90.20;;;;;;6245347;28;20317;-70
2021/08/09 09:36:59;;;;;;;1.40;0.75;;;26.60;83.70;;;;;;6244920;28;20219;-70
2021/08/09 09:40:12;;;;;;;1.02;0.60;;;27.00;86.20;;;;;;6261571;28;20200;-70
2021/08/09 09:43:20;;;;;;;2.83;0.90;;;27.30;88.40;;;;;;6245105;28;20635;-71
2021/08/09 09:46:30;;;;;;;4.50;0.70;;;27.60;86.50;;;;;;6246256;28;20270;-71
2021/08/09 09:49:34;;;;;;;1.77;0.75;;;27.70;87.70;;;;;;6261432;28;20550;-70
2021/08/09 09:52:47;;;;;;;0.82;0.80;;;27.60;80.40;;;;;;6244873;28;20204;-71
2021/08/09 09:55:52;;;;;;;1.08;0.90;;;27.70;81.70;;;;;;6244485;28;20274;-71
2021/08/09 09:58:56;;;;;;;1.05;0.75;;;27.90;75.20;;;;;;6246035;28;20270;-70
2021/08/09 10:01:59;;;;;;;1.50;0.70;;;27.80;72.20;;;;;;6244644;28;20207;-71
2021/08/09 10:05:03;;;;;;;2.00;0.80;;;28.00;79.20;;;;;;6245887;28;20184;-72
2021/08/09 10:08:13;;;;;;;2.72;1.02;;;27.90;72.00;;;;;;6245722;28;20212;-71
2021/08/09 10:11:20;;;;;;;2.03;0.90;;;27.60;66.30;;;;;;6244376;28;20548;-71
2021/08/09 10:14:22;;;;;;;2.08;1.20;;;27.40;72.10;;;;;;6244392;28;20659;-71
2021/08/09 10:17:27;;;;;;;1.10;0.80;;;27.30;68.20;;;;;;6244352;28;20227;-70
2021/08/09 10:20:30;;;;;;;3.25;0.80;;;27.30;73.60;;;;;;6245574;28;20542;-70
2021/08/09 10:23:45;;;;;;;1.10;0.70;;;27.80;79.80;;;;;;6244474;28;20218;-70
2021/08/09 10:26:48;;;;;;;4.10;0.93;;;28.30;79.10;;;;;;6245355;28;20305;-70
2021/08/09 10:29:59;;;;;;;2.45;1.00;;;28.70;73.30;;;;;;6244106;28;20298;-70
2021/08/09 10:33:07;;;;;;;0.90;0.80;;;28.90;73.40;;;;;;6245306;28;20196;-70
2021/08/09 10:36:10;;;;;;;2.45;1.10;;;28.80;66.20;;;;;;6243783;28;20220;-70
2021/08/09 10:39:51;;;;;;;1.63;1.20;;;28.60;71.50;;;;;;6260442;28;20290;-69
2021/08/09 10:42:59;;;;;;;1.40;0.95;;;28.90;68.50;;;;;;6245264;28;20197;-68
2021/08/09 10:46:01;;;;;;;0.85;0.73;;;29.30;71.70;;;;;;6245140;28;20192;-69
2021/08/09 10:49:27;;;;;;;1.77;0.88;;;29.50;62.40;;;;;;6243687;28;20611;-69
2021/08/09 10:52:35;;;;;;;1.58;0.95;;;29.60;58.90;;;;;;6244828;28;20273;-69
2021/08/09 10:55:38;;;;;;;2.33;1.05;;;29.20;55.10;;;;;;6245015;28;20549;-70
2021/08/09 10:58:43;;;;;;;1.65;0.85;;;29.20;59.00;;;;;;6243517;28;20656;-68
2021/08/09 11:02:02;;;;;;;2.03;1.20;;;29.10;60.80;;;;;;6244885;28;20310;-69
2021/08/09 11:05:16;;;;;;;1.23;1.02;;;29.50;57.00;;;;;;6243638;28;20185;-69
2021/08/09 11:08:18;;;;;;;0.98;0.85;;;29.40;56.90;;;;;;6244643;28;20214;-70
2021/08/09 11:11:24;;;;;;;1.90;0.95;;;29.60;59.40;;;;;;6243885;28;20223;-70
2021/08/09 11:14:27;;;;;;;3.15;1.30;;;30.10;59.70;;;;;;6244761;28;20203;-70
2021/08/09 11:17:44;;;;;;;1.38;0.82;;;29.90;55.00;;;;;;6243651;28;20227;-70
2021/08/09 11:20:46;;;;;;;2.28;1.15;;;29.70;54.10;;;;;;6259674;28;20196;-70
2021/08/09 11:23:50;;;;;;;2.72;1.10;;;29.00;54.10;;;;;;6243267;28;20293;-69
2021/08/09 11:27:04;;;;;;;4.88;1.10;;;28.20;55.40;;;;;;6243164;28;20212;-70
2021/08/09 11:30:07;;;;;;;1.27;0.70;;;28.30;56.80;;;;;;6243309;28;20188;-69
2021/08/09 11:33:36;;;;;;;2.97;1.52;;;28.70;57.00;;;;;;6244012;28;20200;-69
2021/08/09 11:36:38;;;;;;;1.20;1.10;;;28.60;55.20;;;;;;6247804;28;20216;-70
2021/08/09 11:39:40;;;;;;;2.72;1.10;;;28.20;56.40;;;;;;6248559;28;20222;-70
2021/08/09 11:42:49;;;;;;;5.35;1.23;;;28.30;58.70;;;;;;6248096;28;20208;-70
2021/08/09 11:45:55;;;;;;;2.15;0.80;;;28.80;58.40;;;;;;6263268;28;20636;-71
2021/08/09 11:48:58;;;;;;;0.98;0.88;;;28.80;55.90;;;;;;6247327;28;20192;-69
2021/08/09 11:52:00;;;;;;;1.45;1.13;;;28.80;54.70;;;;;;6247161;28;20196;-69
2021/08/09 11:55:03;;;;;;;1.90;1.05;;;28.80;53.90;;;;;;6263443;28;20207;-72
2021/08/09 11:58:05;;;;;;;1.13;1.00;;;28.90;53.40;;;;;;6247004;28;20223;-70
2021/08/09 12:01:08;;;;;;;1.67;1.05;;;28.90;53.20;;;;;;6246881;28;20218;-70
2021/08/09 12:04:22;;;;;;;2.05;1.08;;;28.50;54.20;;;;;;6246663;28;20564;-70
2021/08/09 12:07:26;;;;;;;2.30;1.08;;;28.90;55.60;;;;;;6247712;28;20188;-70
2021/08/09 12:10:28;;;;;;;1.75;1.38;;;29.30;55.50;;;;;;6249146;28;20684;-70
2021/08/09 12:13:32;;;;;;;2.20;0.90;;;29.80;55.40;;;;;;6249121;28;20192;-69
2021/08/09 12:16:51;;;;;;;2.10;1.00;;;29.90;52.20;;;;;;6246928;28;20239;-71
2021/08/09 12:19:54;;;;;;;4.00;1.02;;;29.90;51.80;;;;;;6246757;28;20208;-70
2021/08/09 12:22:57;;;;;;;1.10;0.80;;;30.20;51.90;;;;;;6248194;28;20247;-70
2021/08/09 12:25:59;;;;;;;0.98;0.73;;;30.60;51.70;;;;;;6246643;28;20188;-70
2021/08/09 12:29:05;;;;;;;1.75;0.90;;;30.70;51.30;;;;;;6246258;28;20219;-69
2021/08/09 12:32:15;;;;;;;1.63;0.85;;;30.70;52.80;;;;;;6263588;28;20647;-70
2021/08/09 12:35:33;;;;;;;1.25;0.90;;;29.90;52.90;;;;;;6247932;28;20220;-73
2021/08/09 12:38:40;;;;;;;2.78;1.02;;;29.40;53.20;;;;;;6247975;28;20215;-68
2021/08/09 12:41:42;;;;;;;1.90;1.17;;;29.40;54.70;;;;;;6247539;28;20215;-70
2021/08/09 12:44:46;;;;;;;2.58;1.10;;;29.60;52.70;;;;;;6245312;28;20195;-70
2021/08/09 12:47:48;;;;;;;0.90;0.70;;;30.00;53.50;;;;;;6247934;28;20632;-70
2021/08/09 12:50:50;;;;;;;1.95;1.10;;;30.50;53.90;;;;;;6247475;28;20374;-71
2021/08/09 12:53:53;;;;;;;1.10;1.00;;;30.80;51.70;;;;;;6246285;28;20738;-69
2021/08/09 12:56:57;;;;;;;3.08;1.00;;;30.70;50.80;;;;;;6247532;28;20970;-72
2021/08/09 12:59:59;;;;;;;2.55;0.80;;;30.30;51.30;;;;;;6247412;28;20196;-70
2021/08/09 13:03:02;;;;;;;1.67;0.95;;;30.30;54.60;;;;;;6246964;28;20321;-70
2021/08/09 13:06:06;;;;;;;1.42;0.90;;;30.40;52.00;;;;;;6262202;28;20563;-69
2021/08/09 13:09:09;;;;;;;2.05;0.95;;;30.70;52.30;;;;;;6245994;28;20278;-71
2021/08/09 13:12:11;;;;;;;2.05;1.10;;;30.70;50.80;;;;;;6245533;28;20196;-71
2021/08/09 13:15:13;;;;;;;1.50;1.00;;;30.70;51.90;;;;;;6245325;28;20574;-71
2021/08/09 13:18:16;;;;;;;1.52;1.00;;;30.80;51.20;;;;;;6245254;28;20215;-71
2021/08/09 13:21:18;;;;;;;2.28;1.00;;;31.00;52.00;;;;;;6245394;28;20548;-71
2021/08/09 13:24:21;;;;;;;1.38;0.88;;;30.90;52.00;;;;;;6246550;28;20282;-70
2021/08/09 13:27:23;;;;;;;2.78;1.00;;;31.10;51.20;;;;;;6244976;28;20659;-70
2021/08/09 13:30:25;;;;;;;1.90;1.00;;;31.50;51.00;;;;;;6246487;28;20509;-72
2021/08/09 13:33:28;;;;;;;2.17;1.10;;;31.80;50.90;;;;;;6261437;28;20235;-69
2021/08/09 13:36:30;;;;;;;0.77;0.77;;;32.10;50.80;;;;;;6246135;28;20762;-70
2021/08/09 13:39:33;;;;;;;2.38;0.60;;;32.40;52.20;;;;;;6246299;28;20721;-70
2021/08/09 13:42:35;;;;;;;1.05;0.80;;;32.70;50.50;;;;;;6261376;28;20219;-71
2021/08/09 13:45:39;;;;;;;1.92;0.82;;;33.20;51.10;;;;;;6246344;28;20273;-73
2021/08/09 13:48:48;;;;;;;4.68;1.05;;;33.70;48.50;;;;;;6244770;28;20188;-71
2021/08/09 13:51:50;;;;;;;1.35;0.90;;;34.20;50.20;;;;;;6244669;28;20188;-69
2021/08/09 13:54:52;;;;;;;1.80;1.10;;;34.70;47.20;;;;;;6244558;28;20191;-70
2021/08/09 13:57:55;;;;;;;1.88;0.80;;;35.00;46.90;;;;;;6244323;28;20199;-70
2021/08/09 14:00:57;;;;;;;1.92;0.63;;;35.50;44.70;;;;;;6261168;28;20625;-70
2021/08/09 14:04:01;;;;;;;2.13;0.90;;;35.70;45.10;;;;;;6245482;28;20224;-71
2021/08/09 14:07:05;;;;;;;1.42;0.82;;;35.50;43.60;;;;;;6260636;28;20199;-71
2021/08/09 14:10:09;;;;;;;1.40;0.90;;;35.80;44.90;;;;;;6244372;28;20670;-70
2021/08/09 14:13:13;;;;;;;1.00;0.80;;;35.90;43.00;;;;;;6244038;28;20648;-71
2021/08/09 14:16:16;;;;;;;1.00;0.90;;;35.50;43.20;;;;;;6243488;28;20319;-70
2021/08/09 14:19:36;;;;;;;1.25;1.08;;;35.50;43.80;;;;;;6245474;28;20173;-70
2021/08/09 14:22:45;;;;;;;1.45;0.88;;;36.20;43.00;;;;;;6245153;28;20281;-70
2021/08/09 14:25:48;;;;;;;2.60;0.82;;;36.50;42.90;;;;;;6245107;28;20188;-71
2021/08/09 14:28:51;;;;;;;1.45;0.77;;;36.40;42.30;;;;;;6245345;28;20198;-70
2021/08/09 14:31:55;;;;;;;1.42;0.77;;;35.90;42.30;;;;;;6260316;28;20227;-72
2021/08/09 14:34:58;;;;;;;1.63;1.00;;;35.60;42.50;;;;;;6244691;28;21037;-72
2021/08/09 14:38:09;;;;;;;1.52;1.10;;;35.80;42.10;;;;;;6245005;28;20189;-70
2021/08/09 14:41:14;;;;;;;1.23;0.70;;;36.10;41.40;;;;;;6243701;28;20200;-70
2021/08/09 14:44:19;;;;;;;1.88;0.90;;;36.20;41.70;;;;;;6243916;28;20334;-73
2021/08/09 14:47:23;;;;;;;1.85;0.90;;;35.70;42.00;;;;;;6260049;28;20203;-70
2021/08/09 14:50:28;;;;;;;3.05;0.80;;;35.50;42.70;;;;;;6260732;28;20242;-71
2021/08/09 14:53:34;;;;;;;3.30;1.00;;;35.50;45.60;;;;;;6245475;28;20207;-70
2021/08/09 14:56:40;;;;;;;0.82;0.73;;;35.80;43.00;;;;;;6244294;28;20745;-71
2021/08/09 14:59:47;;;;;;;1.92;0.90;;;35.80;42.70;;;;;;6244896;28;20195;-70
2021/08/09 15:02:51;;;;;;;1.45;0.98;;;36.00;43.00;;;;;;6243235;28;20306;-71
2021/08/09 15:06:04;;;;;;;4.95;1.02;;;36.20;43.30;;;;;;6243374;28;20609;-71
2021/08/09 15:09:07;;;;;;;1.50;0.90;;;36.50;46.20;;;;;;6245866;28;20357;-71
2021/08/09 15:12:09;;;;;;;2.20;0.77;;;36.50;42.20;;;;;;6249804;28;20242;-70
2021/08/09 15:15:11;;;;;;;0.93;0.77;;;36.50;42.10;;;;;;6249328;28;20663;-71
2021/08/09 15:18:14;;;;;;;2.22;1.08;;;36.50;41.90;;;;;;6224260;28;20548;-71
2021/08/09 15:21:16;;;;;;;3.60;0.95;;;36.70;42.20;;;;;;6248636;28;20208;-70
2021/08/09 15:24:18;;;;;;;2.53;0.93;;;36.60;42.20;;;;;;6264851;28;20809;-72
2021/08/09 15:27:21;;;;;;;0.95;0.82;;;36.50;42.70;;;;;;6249215;28;20194;-70
2021/08/09 15:30:28;;;;;;;1.67;1.20;;;36.30;41.70;;;;;;6249185;28;20273;-70
2021/08/09 15:33:30;;;;;;;2.67;1.00;;;36.80;42.80;;;;;;6248163;28;20199;-71
2021/08/09 15:36:33;;;;;;;1.00;0.80;;;37.10;41.60;;;;;;6247608;28;20445;-71
2021/08/09 15:39:37;;;;;;;2.85;1.00;;;37.00;41.00;;;;;;6247889;28;20192;-70
2021/08/09 15:42:39;;;;;;;2.28;0.77;;;36.70;42.20;;;;;;6247605;28;20211;-72
2021/08/09 15:45:45;;;;;;;1.40;0.95;;;36.80;44.90;;;;;;6248984;28;20207;-70
2021/08/09 15:48:48;;;;;;;0.90;0.80;;;36.90;45.10;;;;;;6239768;28;20220;-69
2021/08/09 15:51:51;;;;;;;1.73;0.80;;;37.20;42.40;;;;;;6246010;28;20279;-69
2021/08/09 15:54:54;;;;;;;3.42;1.20;;;37.50;41.50;;;;;;6247561;28;20724;-71
2021/08/09 15:57:56;;;;;;;2.78;0.73;;;37.60;43.60;;;;;;6248754;28;20190;-72
2021/08/09 16:00:59;;;;;;;2.65;0.80;;;37.00;44.40;;;;;;6247784;28;20614;-71
2021/08/09 16:04:01;;;;;;;3.00;1.00;;;36.40;44.20;;;;;;6263704;28;20692;-70